createdAt,value
2017-08-19T00:02:10.528Z,99.90
2017-08-19T00:04:40.363Z,99.90
2017-08-19T00:07:08.962Z,99.90
2017-08-19T00:09:38.431Z,99.90
2017-08-19T00:12:06.715Z,99.90
2017-08-19T00:14:36.502Z,99.90
2017-08-19T00:17:04.858Z,99.90
2017-08-19T00:19:33.905Z,99.90
2017-08-19T00:22:02.175Z,99.90
2017-08-19T00:27:00.042Z,99.90
2017-08-19T00:29:29.823Z,99.90
2017-08-19T00:31:58.184Z,99.90
2017-08-19T00:34:26.462Z,99.90
2017-08-19T00:36:54.730Z,99.90
2017-08-19T00:39:24.115Z,99.90
2017-08-19T00:41:52.795Z,99.90
2017-08-19T00:46:51.060Z,99.90
2017-08-19T00:49:20.471Z,99.90
2017-08-19T00:51:48.751Z,99.90
2017-08-19T00:54:17.289Z,99.90
2017-08-19T01:01:44.683Z,99.90
2017-08-19T01:04:12.978Z,99.90
2017-08-19T01:06:42.031Z,99.90
2017-08-19T01:09:11.527Z,99.90
2017-08-19T01:11:39.822Z,99.90
2017-08-19T01:14:08.095Z,99.90
2017-08-19T01:16:36.435Z,99.90
2017-08-19T01:19:04.711Z,99.90
2017-08-19T01:21:33.755Z,99.90
2017-08-19T01:24:02.103Z,99.90
2017-08-19T01:26:42.959Z,99.90
2017-08-19T01:29:11.296Z,99.90
2017-08-19T01:31:40.360Z,99.90
2017-08-19T01:34:08.672Z,99.90
2017-08-19T01:36:37.012Z,99.90
2017-08-19T01:39:05.291Z,99.90
2017-08-19T01:41:35.078Z,99.90
2017-08-19T01:44:03.415Z,99.90
2017-08-19T01:46:31.704Z,99.90
2017-08-19T01:48:59.988Z,99.90
2017-08-19T01:51:29.822Z,99.90
2017-08-19T01:53:58.115Z,99.90
2017-08-19T01:56:26.391Z,99.90
2017-08-19T01:58:56.219Z,99.90
2017-08-19T02:03:54.395Z,99.90
2017-08-19T02:06:23.144Z,99.90
2017-08-19T02:11:22.059Z,99.90
2017-08-19T02:13:50.400Z,99.90
2017-08-19T02:16:18.679Z,99.90
2017-08-19T02:18:46.955Z,99.90
2017-08-19T02:21:15.295Z,99.90
2017-08-19T02:23:44.346Z,99.90
2017-08-19T02:26:12.641Z,99.90
2017-08-19T02:28:41.009Z,99.90
2017-08-19T02:31:09.282Z,99.90
2017-08-19T02:33:39.077Z,99.90
2017-08-19T02:38:37.702Z,99.90
2017-08-19T02:41:07.114Z,99.90
2017-08-19T02:43:35.726Z,99.90
2017-08-19T02:46:04.395Z,99.90
2017-08-19T02:48:32.673Z,99.90
2017-08-19T02:53:32.047Z,99.90
2017-08-19T02:56:00.319Z,99.90
2017-08-19T02:58:28.663Z,99.90
2017-08-19T03:00:56.943Z,99.90
2017-08-19T03:03:25.218Z,99.90
2017-08-19T03:05:53.551Z,99.90
2017-08-19T03:08:22.607Z,99.90
2017-08-19T03:10:51.274Z,99.90
2017-08-19T03:13:19.618Z,99.90
2017-08-19T03:15:47.896Z,99.90
2017-08-19T03:18:17.680Z,99.90
2017-08-19T03:20:46.030Z,99.90
2017-08-19T03:23:15.806Z,99.90
2017-08-19T03:25:44.105Z,99.90
2017-08-19T03:28:12.446Z,99.90
2017-08-19T03:30:41.495Z,99.90
2017-08-19T03:33:09.791Z,99.90
2017-08-19T03:35:38.167Z,99.90
2017-08-19T03:38:06.446Z,99.90
2017-08-19T03:40:34.727Z,99.90
2017-08-19T03:43:04.163Z,99.90
2017-08-19T03:45:33.210Z,99.90
2017-08-19T03:50:31.044Z,99.90
2017-08-19T03:52:59.343Z,99.90
2017-08-19T03:55:27.622Z,99.90
2017-08-19T04:00:25.456Z,99.90
2017-08-19T04:02:53.741Z,99.90
2017-08-19T04:07:52.006Z,99.90
2017-08-19T04:10:20.291Z,99.90
2017-08-19T04:12:48.652Z,99.90
2017-08-19T04:17:47.577Z,99.90
2017-08-19T04:20:16.418Z,99.90
2017-08-19T04:22:44.730Z,99.90
2017-08-19T04:25:13.802Z,99.90
2017-08-19T04:27:42.311Z,99.90
2017-08-19T04:30:10.598Z,99.90
2017-08-19T04:32:38.884Z,99.90
2017-08-19T04:35:07.226Z,99.90
2017-08-19T04:37:35.503Z,99.90
2017-08-19T04:45:03.696Z,99.90
2017-08-19T04:47:33.106Z,99.90
2017-08-19T04:52:31.427Z,99.90
2017-08-19T04:55:01.216Z,99.90
2017-08-19T04:57:29.556Z,99.90
2017-08-19T05:02:27.750Z,99.90
2017-08-19T05:07:26.762Z,99.90
2017-08-19T05:09:55.043Z,99.90
2017-08-19T05:12:24.491Z,99.90
2017-08-19T05:17:22.674Z,99.90
2017-08-19T05:19:51.126Z,99.90
2017-08-19T05:22:19.411Z,99.90
2017-08-19T05:24:47.691Z,99.90
2017-08-19T05:29:45.562Z,99.90
2017-08-19T05:32:13.855Z,99.90
2017-08-19T05:34:42.222Z,99.90
2017-08-19T05:37:10.927Z,99.90
2017-08-19T05:39:39.213Z,99.90
2017-08-19T05:42:07.955Z,99.90
2017-08-19T05:44:36.232Z,99.90
2017-08-19T05:47:04.506Z,99.90
2017-08-19T05:49:32.838Z,99.90
2017-08-19T05:52:02.258Z,99.90
2017-08-19T05:54:30.543Z,99.90
2017-08-19T05:56:58.882Z,99.90
2017-08-19T05:59:27.159Z,99.90
2017-08-19T06:06:55.281Z,99.90
2017-08-19T06:11:53.879Z,99.70
2017-08-19T06:14:22.919Z,99.90
2017-08-19T06:16:51.194Z,99.70
2017-08-19T06:21:49.058Z,99.90
2017-08-19T06:24:17.339Z,99.80
2017-08-19T06:26:45.679Z,99.80
2017-08-19T06:29:13.973Z,99.20
2017-08-19T06:31:45.823Z,99.60
2017-08-19T06:34:14.279Z,99.60
2017-08-19T06:36:42.578Z,99.10
2017-08-19T06:39:12.374Z,98.90
2017-08-19T06:41:41.115Z,98.70
2017-08-19T06:44:10.553Z,98.40
2017-08-19T06:54:07.498Z,98.60
2017-08-19T06:56:36.899Z,98.00
2017-08-19T06:59:05.188Z,98.50
2017-08-19T07:04:03.467Z,99.20
2017-08-19T07:06:33.255Z,98.20
2017-08-19T07:11:31.870Z,98.20
2017-08-19T07:14:00.169Z,98.90
2017-08-19T07:18:58.788Z,97.40
2017-08-19T07:21:28.251Z,98.00
2017-08-19T07:26:27.210Z,97.30
2017-08-19T07:28:56.990Z,97.20
2017-08-19T07:31:25.275Z,97.70
2017-08-19T07:36:23.755Z,96.30
2017-08-19T07:38:52.431Z,96.30
2017-08-19T07:46:20.910Z,96.20
2017-08-19T07:48:49.257Z,95.90
2017-08-19T07:53:47.820Z,95.90
2017-08-19T07:56:16.207Z,96.60
2017-08-19T07:58:46.010Z,96.80
2017-08-19T08:01:14.312Z,97.90
2017-08-19T08:03:42.669Z,99.30
2017-08-19T08:06:10.951Z,99.30
2017-08-19T08:08:40.416Z,99.90
2017-08-19T08:11:08.750Z,99.90
2017-08-19T08:13:37.030Z,99.90
2017-08-19T08:16:05.324Z,99.90
2017-08-19T08:18:33.651Z,99.90
2017-08-19T08:21:02.330Z,99.90
2017-08-19T08:23:31.011Z,99.90
2017-08-19T08:25:59.383Z,99.90
2017-08-19T08:28:28.812Z,99.90
2017-08-19T08:30:57.111Z,99.90
2017-08-19T08:33:25.535Z,99.90
2017-08-19T08:35:54.208Z,99.90
2017-08-19T08:38:23.238Z,99.90
2017-08-19T08:40:51.567Z,98.80
2017-08-19T08:43:19.843Z,99.80
2017-08-19T08:45:48.119Z,99.20
2017-08-19T08:48:16.442Z,98.10
2017-08-19T08:53:15.808Z,99.20
2017-08-19T08:55:44.180Z,96.90
2017-08-19T08:58:13.245Z,98.60
2017-08-19T09:03:11.529Z,97.20
2017-08-19T09:05:40.588Z,97.10
2017-08-19T09:10:38.831Z,96.50
2017-08-19T09:13:07.115Z,96.40
2017-08-19T09:15:35.394Z,95.20
2017-08-19T09:18:04.102Z,94.60
2017-08-19T09:20:33.138Z,94.40
2017-08-19T09:23:02.190Z,95.10
2017-08-19T09:25:30.568Z,95.40
2017-08-19T09:27:59.989Z,95.30
2017-08-19T09:30:28.274Z,94.40
2017-08-19T09:32:56.998Z,94.00
2017-08-19T09:35:25.674Z,91.20
2017-08-19T09:37:54.043Z,92.60
2017-08-19T09:42:52.034Z,91.60
2017-08-19T09:45:20.307Z,92.20
2017-08-19T09:47:48.643Z,90.90
2017-08-19T09:50:16.918Z,90.10
2017-08-19T09:55:15.894Z,84.10
2017-08-19T09:57:44.934Z,83.40
2017-08-19T10:02:43.962Z,82.40
2017-08-19T10:05:12.255Z,86.20
2017-08-19T10:07:41.681Z,81.90
2017-08-19T10:10:21.873Z,82.40
2017-08-19T10:17:49.956Z,82.70
2017-08-19T10:20:18.990Z,86.60
2017-08-19T10:22:48.043Z,85.20
2017-08-19T10:27:46.646Z,85.70
2017-08-19T10:30:14.940Z,87.60
2017-08-19T10:32:44.431Z,87.80
2017-08-19T10:35:13.140Z,85.10
2017-08-19T10:37:41.441Z,85.00
2017-08-19T10:40:11.676Z,85.50
2017-08-19T10:42:40.757Z,82.90
2017-08-19T10:45:09.083Z,85.90
2017-08-19T10:47:37.430Z,85.50
2017-08-19T10:50:06.448Z,86.00
2017-08-19T10:52:35.864Z,86.60
2017-08-19T11:00:03.612Z,82.20
2017-08-19T11:10:02.378Z,80.90
2017-08-19T11:12:32.173Z,82.90
2017-08-19T11:15:00.459Z,81.30
2017-08-19T11:17:31.354Z,81.90
2017-08-19T11:19:59.639Z,77.70
2017-08-19T11:22:28.680Z,79.60
2017-08-19T11:24:57.691Z,75.50
2017-08-19T11:27:27.112Z,75.30
2017-08-19T11:29:55.391Z,77.40
2017-08-19T11:37:23.884Z,77.70
2017-08-19T11:39:52.238Z,75.70
2017-08-19T11:42:20.777Z,77.90
2017-08-19T11:44:49.825Z,79.30
2017-08-19T11:47:18.179Z,76.50
2017-08-19T11:52:15.974Z,76.00
2017-08-19T11:54:44.666Z,75.50
2017-08-19T11:57:12.978Z,76.40
2017-08-19T11:59:41.284Z,76.30
2017-08-19T12:02:10.782Z,78.50
2017-08-19T12:04:39.063Z,78.40
2017-08-19T12:07:08.867Z,74.30
2017-08-19T12:09:37.609Z,79.00
2017-08-19T12:12:05.887Z,76.30
2017-08-19T12:14:35.299Z,75.40
2017-08-19T12:17:04.378Z,76.90
2017-08-19T12:19:33.796Z,76.00
2017-08-19T12:22:02.078Z,74.90
2017-08-19T12:24:30.405Z,78.50
2017-08-19T12:29:29.727Z,75.80
2017-08-19T12:34:27.768Z,76.70
2017-08-19T12:39:26.815Z,75.80
2017-08-19T12:44:24.654Z,76.40
2017-08-19T12:46:52.986Z,73.70
2017-08-19T12:51:50.759Z,74.40
2017-08-19T12:54:19.094Z,72.90
2017-08-19T12:56:47.766Z,76.20
2017-08-19T13:01:46.015Z,73.80
2017-08-19T13:04:14.305Z,71.90
2017-08-19T13:06:43.372Z,73.80
2017-08-19T13:09:11.745Z,71.60
2017-08-19T13:11:40.815Z,77.40
2017-08-19T13:14:09.886Z,75.00
2017-08-19T13:16:38.222Z,73.70
2017-08-19T13:19:06.495Z,74.20
2017-08-19T13:24:04.336Z,74.00
2017-08-19T13:26:32.607Z,75.60
2017-08-19T13:29:00.892Z,72.40
2017-08-19T13:33:59.528Z,70.40
2017-08-19T13:36:27.799Z,74.80
2017-08-19T13:38:57.276Z,77.20
2017-08-19T13:41:25.559Z,74.00
2017-08-19T13:43:53.831Z,72.40
2017-08-19T13:51:21.194Z,75.10
2017-08-19T13:58:49.671Z,74.60
2017-08-19T14:01:17.999Z,75.40
2017-08-19T14:03:46.275Z,74.10
2017-08-19T14:06:14.571Z,72.60
2017-08-19T14:08:44.055Z,72.70
2017-08-19T14:11:12.344Z,72.90
2017-08-19T14:13:40.637Z,75.20
2017-08-19T14:16:09.036Z,78.70
2017-08-19T14:18:37.311Z,78.10
2017-08-19T14:21:05.586Z,78.40
2017-08-19T14:23:34.692Z,80.00
2017-08-19T14:26:03.735Z,80.30
2017-08-19T14:31:02.363Z,81.80
2017-08-19T14:33:31.402Z,82.60
2017-08-19T14:36:00.838Z,84.10
2017-08-19T14:38:29.599Z,85.30
2017-08-19T14:40:57.887Z,83.10
2017-08-19T14:43:26.166Z,84.00
2017-08-19T14:45:55.655Z,83.30
2017-08-19T14:48:24.332Z,89.10
2017-08-19T14:50:52.615Z,91.40
2017-08-19T14:53:20.980Z,93.10
2017-08-19T14:55:50.392Z,93.70
2017-08-19T14:58:18.675Z,94.60
2017-08-19T15:00:47.403Z,95.20
2017-08-19T15:03:15.699Z,96.10
2017-08-19T15:05:44.756Z,96.70
2017-08-19T15:08:13.127Z,97.70
2017-08-19T15:10:41.424Z,97.40
2017-08-19T15:13:10.131Z,97.60
2017-08-19T15:15:39.260Z,97.80
2017-08-19T15:18:07.552Z,97.90
2017-08-19T15:20:36.232Z,98.60
2017-08-19T15:23:05.360Z,99.30
2017-08-19T15:25:35.155Z,98.90
2017-08-19T15:30:34.394Z,98.30
2017-08-19T15:33:03.803Z,97.20
2017-08-19T15:35:32.850Z,98.10
2017-08-19T15:40:32.780Z,98.00
2017-08-19T15:43:01.076Z,97.60
2017-08-19T15:45:29.430Z,97.10
2017-08-19T15:47:57.708Z,97.00
2017-08-19T15:50:26.758Z,96.40
2017-08-19T15:55:25.355Z,95.90
2017-08-19T15:57:53.635Z,95.10
2017-08-19T16:02:51.967Z,94.60
2017-08-19T16:05:20.320Z,96.10
2017-08-19T16:07:48.679Z,95.60
2017-08-19T16:10:18.496Z,94.90
2017-08-19T16:12:47.539Z,94.50
2017-08-19T16:15:16.503Z,94.30
2017-08-19T16:17:44.795Z,95.20
2017-08-19T16:20:14.611Z,95.40
2017-08-19T16:22:42.988Z,95.80
2017-08-19T16:27:40.806Z,96.00
2017-08-19T16:32:39.547Z,95.10
2017-08-19T16:37:37.791Z,95.30
2017-08-19T16:42:37.123Z,94.00
2017-08-19T16:45:05.586Z,95.40
2017-08-19T16:47:33.863Z,94.40
2017-08-19T16:50:02.153Z,95.40
2017-08-19T16:55:00.028Z,95.80
2017-08-19T16:57:28.328Z,96.30
2017-08-19T16:59:56.650Z,96.40
2017-08-19T17:02:26.066Z,95.70
2017-08-19T17:04:54.342Z,95.30
2017-08-19T17:07:22.855Z,93.90
2017-08-19T17:09:51.138Z,92.90
2017-08-19T17:14:50.839Z,92.90
2017-08-19T17:17:19.511Z,93.40
2017-08-19T17:19:47.778Z,92.80
2017-08-19T17:24:47.132Z,92.50
2017-08-19T17:27:15.413Z,92.40
2017-08-19T17:29:45.287Z,92.70
2017-08-19T17:32:13.579Z,92.10
2017-08-19T17:34:43.387Z,92.30
2017-08-19T17:37:11.739Z,92.20
2017-08-19T17:39:40.807Z,92.30
2017-08-19T17:42:09.856Z,92.20
2017-08-19T17:47:08.830Z,92.30
2017-08-19T17:52:07.038Z,91.70
2017-08-19T17:57:05.214Z,92.40
2017-08-19T18:02:04.563Z,92.80
2017-08-19T18:04:32.838Z,91.90
2017-08-19T18:07:01.210Z,91.80
2017-08-19T18:09:29.491Z,91.40
2017-08-19T18:11:59.302Z,91.40
2017-08-19T18:14:27.634Z,91.50
2017-08-19T18:19:25.407Z,92.60
2017-08-19T18:21:53.738Z,92.40
2017-08-19T18:24:22.778Z,92.10
2017-08-19T18:26:52.186Z,92.20
2017-08-19T18:29:20.527Z,93.30
2017-08-19T18:34:18.698Z,92.30
2017-08-19T18:36:47.035Z,93.00
2017-08-19T18:39:15.316Z,92.80
2017-08-19T18:41:44.750Z,92.40
2017-08-19T18:44:14.960Z,92.40
2017-08-19T18:46:44.755Z,92.90
2017-08-19T18:49:14.549Z,92.50
2017-08-19T18:54:12.950Z,92.50
2017-08-19T18:56:41.260Z,92.70
2017-08-19T18:59:09.998Z,92.80
2017-08-19T19:01:38.278Z,92.90
2017-08-19T19:04:07.683Z,93.10
2017-08-19T19:06:36.371Z,93.30
2017-08-19T19:09:06.153Z,93.20
2017-08-19T19:11:34.428Z,93.20
2017-08-19T19:19:02.041Z,93.90
2017-08-19T19:24:01.398Z,93.80
2017-08-19T19:26:30.453Z,94.10
2017-08-19T19:33:58.924Z,94.60
2017-08-19T19:36:27.250Z,94.80
2017-08-19T19:38:55.527Z,95.00
2017-08-19T19:41:24.936Z,95.10
2017-08-19T19:43:54.135Z,95.20
2017-08-19T19:46:23.914Z,95.30
2017-08-19T19:48:52.197Z,95.40
2017-08-19T19:51:20.516Z,95.50
2017-08-19T19:53:50.290Z,95.60
2017-08-19T19:58:49.298Z,95.70
2017-08-19T20:01:17.966Z,95.80
2017-08-19T20:06:16.227Z,95.70
2017-08-19T20:08:44.532Z,95.70
2017-08-19T20:11:12.809Z,96.00
2017-08-19T20:16:10.841Z,96.10
2017-08-19T20:18:39.132Z,96.30
2017-08-19T20:21:07.839Z,96.50
2017-08-19T20:23:36.114Z,96.80
2017-08-19T20:26:05.155Z,96.80
2017-08-19T20:28:33.856Z,97.00
2017-08-19T20:31:03.640Z,97.20
2017-08-19T20:33:31.917Z,97.30
2017-08-19T20:36:01.214Z,97.50
2017-08-19T20:40:59.016Z,97.70
2017-08-19T20:48:26.359Z,97.80
2017-08-19T20:50:56.194Z,97.80
2017-08-19T20:55:54.731Z,98.10
2017-08-19T20:58:23.058Z,98.10
2017-08-19T21:00:51.326Z,98.00
2017-08-19T21:03:19.999Z,98.20
2017-08-19T21:05:48.750Z,98.50
2017-08-19T21:08:17.440Z,98.70
2017-08-19T21:10:45.743Z,98.80
2017-08-19T21:13:14.129Z,99.00
2017-08-19T21:15:43.926Z,99.20
2017-08-19T21:23:11.833Z,99.50
2017-08-19T21:25:40.902Z,99.60
2017-08-19T21:28:10.238Z,99.70
2017-08-19T21:30:39.294Z,99.80
2017-08-19T21:33:08.339Z,99.80
2017-08-19T21:35:36.759Z,99.90
2017-08-19T21:40:36.391Z,99.90
2017-08-19T21:43:04.730Z,99.90
2017-08-19T21:45:34.517Z,99.90
2017-08-19T21:50:33.671Z,99.90
2017-08-19T21:55:31.447Z,99.90
2017-08-19T22:05:28.383Z,99.50
2017-08-19T22:12:56.347Z,99.70
2017-08-19T22:15:26.128Z,99.60
2017-08-19T22:17:54.406Z,99.20
2017-08-19T22:20:24.261Z,99.10
2017-08-19T22:22:52.538Z,98.70
2017-08-19T22:25:21.221Z,98.70
2017-08-19T22:27:50.742Z,98.80
2017-08-19T22:30:19.023Z,99.10
2017-08-19T22:34:18.035Z,98.40
2017-08-19T22:36:47.463Z,98.20
2017-08-19T22:39:15.759Z,97.90
2017-08-19T22:41:44.387Z,97.80
2017-08-19T22:44:14.191Z,97.80
2017-08-19T22:46:43.619Z,97.60
2017-08-19T22:49:12.072Z,97.60
2017-08-19T22:51:41.885Z,97.80
2017-08-19T22:54:10.930Z,97.80
2017-08-19T22:56:40.027Z,97.70
2017-08-19T22:59:08.303Z,97.40
2017-08-19T23:01:36.583Z,97.50
2017-08-19T23:04:05.063Z,97.40
2017-08-19T23:09:02.858Z,97.20
2017-08-19T23:11:31.246Z,97.30
2017-08-19T23:14:00.700Z,97.60
2017-08-19T23:16:29.001Z,97.60
2017-08-19T23:18:57.330Z,97.70
2017-08-19T23:21:26.007Z,97.80
2017-08-19T23:23:54.282Z,97.60
2017-08-19T23:26:23.684Z,97.60
2017-08-19T23:28:51.962Z,97.60
2017-08-19T23:31:20.249Z,97.70
2017-08-19T23:33:48.987Z,97.90
2017-08-19T23:36:17.659Z,97.80
2017-08-19T23:38:45.947Z,97.70
2017-08-19T23:43:43.836Z,97.60
2017-08-19T23:46:12.134Z,97.50
2017-08-19T23:48:40.456Z,97.40
2017-08-19T23:51:08.742Z,97.40
2017-08-19T23:53:37.030Z,97.40
2017-08-19T23:56:05.362Z,97.50
2017-08-19T23:58:34.779Z,97.40
